OICC  Shahid Ashrafi Esfahani  Airport

Kermanshah, Iran

Add Bookmark
ICAO OICC
IATA KSH
Type Airport
Status Operational
Latitude
34° 20' 45" N
34.345901
Longitude
47° 9' 29" E
47.158100
Local (GMT +3.5 ) UTC
Dec 6, 2016 04:15 am Dec 6, 2016 00:45
Sunrise-Sunset Local UTC
Begin Civil Twilight 06:45 am 03:15
Sunrise 07:12 am 03:42
Sunset 05:12 pm 13:42
End Civil Twilight 05:40 pm 14:10
VFR
VFR
MVFR
MVFR
IFR
IFR
LIFR
LIFR
Unknown
No Data

Current Weather

METAR Observed VFR
OICC 060000Z 29006KT 9999 SCT040 BKN080 10/06 Q1019 A3011 Tue, Dec 6, 2016 @ 00:00 UTC
(45 Minutes ago)
Visual Flight Rules
Wind Visibility Clouds Conditions
290° at 6 knots (11 kph) 10 km or more
  • Scattered at 4,000 ft AGL
  • Broken at 8,000 ft AGL
  • No significant weather
Temperatures Readings Precipitation
Current Temp
10°C
50°F
Dewpoint
6°C
43°F
Humidity 76%
Altimeter 30.09" Hg
Sea Level Pressure 1,019 mb
Field Elevation
1,322 m
4,337 ft
None Recorded
-
-

CheckWX.com is intended as a tool to help pilots better visualize weather data. It is not intended as a substitute for an official weather briefing obtained from a Flight Service Station. CheckWX.com does not meet the FAA requirements for an official pre-flight weather briefing. Therefore, it's important that pilots still call and obtain an official FSS pre-flight weather briefing.

© 2007-2016 CheckWX.com
00:45:37 UTC